createdAt,value
2019-03-24T00:01:42.129Z,14.23
2019-03-24T00:05:11.451Z,23.03
2019-03-24T00:10:10.972Z,18.13
2019-03-24T00:12:51.802Z,12.13
2019-03-24T00:18:49.051Z,20.73
2019-03-24T00:21:40.673Z,24.77
2019-03-24T00:24:14.974Z,17.00
2019-03-24T00:30:12.553Z,14.03
2019-03-24T00:35:56.766Z,13.77
2019-03-24T00:36:46.669Z,16.07
2019-03-24T00:39:14.538Z,16.00
2019-03-24T00:45:21.081Z,13.60
2019-03-24T00:50:29.062Z,17.07
2019-03-24T00:53:59.043Z,21.90
2019-03-24T00:57:04.423Z,15.70
2019-03-24T01:00:13.423Z,10.30
2019-03-24T01:03:22.893Z,17.83
2019-03-24T01:06:19.975Z,12.10
2019-03-24T01:09:30.517Z,19.73
2019-03-24T01:13:42.084Z,20.30
2019-03-24T01:15:12.398Z,22.87
2019-03-24T01:18:20.517Z,15.03
2019-03-24T01:23:48.087Z,18.57
2019-03-24T01:26:07.624Z,16.93
2019-03-24T01:28:57.323Z,17.13
2019-03-24T01:31:55.647Z,14.87
2019-03-24T01:46:55.798Z,19.43
2019-03-24T01:49:28.602Z,21.77
2019-03-24T01:52:20.269Z,18.33
2019-03-24T01:57:59.734Z,18.33
2019-03-24T02:02:45.198Z,21.90
2019-03-24T02:07:40.333Z,15.00
2019-03-24T02:10:05.952Z,23.10
2019-03-24T02:13:06.984Z,15.20
2019-03-24T02:16:09.836Z,19.70
2019-03-24T02:18:55.814Z,21.47
2019-03-24T02:22:34.385Z,25.57
2019-03-24T02:24:49.473Z,21.20
2019-03-24T02:27:49.807Z,24.83
2019-03-24T02:31:33.275Z,19.80
2019-03-24T02:33:25.059Z,18.30
2019-03-24T02:36:10.012Z,24.57
2019-03-24T02:42:19.939Z,24.07
2019-03-24T02:44:56.297Z,20.07
2019-03-24T02:51:18.437Z,18.53
2019-03-24T02:53:40.973Z,20.87
2019-03-24T02:56:33.590Z,18.90
2019-03-24T02:59:32.268Z,24.50
2019-03-24T03:02:45.722Z,28.80
2019-03-24T03:09:05.103Z,24.13
2019-03-24T03:11:44.699Z,24.17
2019-03-24T03:15:04.139Z,19.93
2019-03-24T03:17:32.205Z,28.00
2019-03-24T03:20:00.473Z,30.13
2019-03-24T03:22:28.659Z,22.73
2019-03-24T03:24:56.638Z,22.83
2019-03-24T03:27:24.626Z,21.03
2019-03-24T03:29:52.584Z,26.23
2019-03-24T03:32:20.646Z,25.57
2019-03-24T03:34:48.595Z,26.33
2019-03-24T03:37:16.613Z,25.67
2019-03-24T03:39:44.756Z,27.90
2019-03-24T03:42:12.899Z,21.33
2019-03-24T03:44:40.842Z,29.20
2019-03-24T03:47:08.872Z,21.53
2019-03-24T03:49:36.914Z,25.80
2019-03-24T03:52:04.954Z,18.27
2019-03-24T03:54:33.040Z,17.03
2019-03-24T03:57:05.216Z,30.07
2019-03-24T03:59:33.293Z,26.70
2019-03-24T04:02:01.366Z,20.27
2019-03-24T04:04:29.378Z,30.57
2019-03-24T04:06:57.381Z,23.37
2019-03-24T04:09:25.344Z,29.43
2019-03-24T04:11:53.345Z,32.20
2019-03-24T04:14:21.330Z,23.60
2019-03-24T04:16:49.401Z,28.03
2019-03-24T04:19:17.455Z,28.00
2019-03-24T04:21:45.666Z,34.53
2019-03-24T04:24:13.605Z,19.07
2019-03-24T04:26:41.637Z,20.30
2019-03-24T04:29:09.632Z,24.50
2019-03-24T04:31:37.682Z,24.00
2019-03-24T04:34:05.669Z,23.33
2019-03-24T04:36:33.676Z,22.97
2019-03-24T04:39:01.651Z,21.97
2019-03-24T04:41:29.625Z,21.87
2019-03-24T04:43:57.602Z,21.13
2019-03-24T04:46:25.569Z,25.23
2019-03-24T04:48:53.555Z,20.53
2019-03-24T04:51:21.592Z,20.07
2019-03-24T04:53:49.617Z,27.77
2019-03-24T04:56:17.639Z,26.30
2019-03-24T04:58:45.629Z,20.60
2019-03-24T05:01:13.644Z,23.83
2019-03-24T05:03:41.572Z,26.77
2019-03-24T05:06:09.539Z,22.10
2019-03-24T05:08:37.590Z,24.13
2019-03-24T05:11:06.074Z,21.60
2019-03-24T05:13:34.014Z,33.17
2019-03-24T05:16:01.990Z,22.30
2019-03-24T05:18:29.974Z,24.97
2019-03-24T05:20:57.930Z,29.07
2019-03-24T05:23:26.344Z,21.63
2019-03-24T05:25:54.399Z,24.90
2019-03-24T05:28:22.339Z,20.13
2019-03-24T05:30:50.318Z,25.77
2019-03-24T05:33:18.431Z,20.63
2019-03-24T05:35:46.354Z,23.13
2019-03-24T05:38:14.330Z,16.90
2019-03-24T05:40:42.274Z,23.73
2019-03-24T05:43:10.294Z,19.17
2019-03-24T05:45:38.234Z,19.13
2019-03-24T05:48:06.274Z,21.47
2019-03-24T05:50:34.229Z,16.07
2019-03-24T05:53:02.225Z,22.50
2019-03-24T05:55:30.159Z,21.13
2019-03-24T05:57:58.256Z,19.43
2019-03-24T06:00:26.232Z,18.73
2019-03-24T06:02:54.300Z,25.60
2019-03-24T06:05:22.269Z,17.97
2019-03-24T06:07:50.380Z,20.40
2019-03-24T06:10:18.324Z,13.67
2019-03-24T06:12:46.299Z,15.63
2019-03-24T06:15:14.330Z,20.63
2019-03-24T06:17:47.709Z,17.70
2019-03-24T06:20:12.374Z,25.53
2019-03-24T06:22:40.464Z,19.40
2019-03-24T06:25:08.636Z,15.13
2019-03-24T06:27:36.649Z,20.27
2019-03-24T06:30:05.129Z,16.90
2019-03-24T06:32:33.125Z,21.30
2019-03-24T06:35:01.065Z,15.77
2019-03-24T06:37:29.069Z,16.17
2019-03-24T06:39:57.010Z,17.97
2019-03-24T06:42:25.015Z,18.67
2019-03-24T06:44:52.959Z,24.77
2019-03-24T06:47:20.940Z,22.43
2019-03-24T06:49:48.896Z,17.70
2019-03-24T06:52:17.031Z,23.60
2019-03-24T06:54:44.964Z,19.10
2019-03-24T06:57:12.964Z,17.13
2019-03-24T06:59:40.990Z,16.30
2019-03-24T07:02:09.024Z,17.53
2019-03-24T07:04:36.934Z,28.97
2019-03-24T07:07:04.934Z,18.23
2019-03-24T07:09:32.869Z,26.23
2019-03-24T07:12:00.836Z,18.37
2019-03-24T07:14:28.770Z,20.77
2019-03-24T07:16:56.764Z,15.83
2019-03-24T07:19:25.200Z,19.43
2019-03-24T07:21:53.211Z,17.93
2019-03-24T07:24:21.184Z,20.27
2019-03-24T07:26:49.220Z,21.20
2019-03-24T07:29:17.184Z,21.07
2019-03-24T07:31:45.172Z,21.70
2019-03-24T07:34:13.429Z,18.43
2019-03-24T07:36:41.430Z,21.73
2019-03-24T07:39:09.369Z,17.47
2019-03-24T07:41:37.401Z,18.47
2019-03-24T07:44:05.479Z,23.80
2019-03-24T07:46:34.364Z,17.33
2019-03-24T07:49:02.534Z,20.60
2019-03-24T07:51:30.671Z,19.00
2019-03-24T07:53:58.607Z,15.33
2019-03-24T07:56:26.634Z,18.90
2019-03-24T07:58:54.686Z,18.53
2019-03-24T08:01:22.624Z,21.03
2019-03-24T08:03:50.619Z,20.63
2019-03-24T08:06:18.547Z,18.40
2019-03-24T08:08:46.549Z,18.83
2019-03-24T08:11:14.462Z,20.50
2019-03-24T08:13:53.285Z,19.73
2019-03-24T08:16:12.336Z,17.30
2019-03-24T08:18:40.305Z,18.60
2019-03-24T08:21:08.290Z,24.30
2019-03-24T08:23:36.290Z,21.93
2019-03-24T08:26:04.238Z,21.30
2019-03-24T08:28:32.239Z,20.07
2019-03-24T08:31:00.620Z,20.10
2019-03-24T08:33:28.655Z,18.30
2019-03-24T08:35:56.645Z,17.03
2019-03-24T08:38:24.632Z,19.33
2019-03-24T08:40:52.620Z,17.60
2019-03-24T08:43:21.065Z,18.47
2019-03-24T08:45:49.021Z,19.03
2019-03-24T08:48:17.044Z,21.90
2019-03-24T08:50:45.005Z,19.60
2019-03-24T08:53:13.015Z,22.00
2019-03-24T08:55:40.999Z,19.33
2019-03-24T08:58:09.206Z,17.40
2019-03-24T09:00:37.175Z,19.20
2019-03-24T09:03:05.205Z,22.33
2019-03-24T09:05:33.778Z,14.77
2019-03-24T09:08:02.003Z,15.33
2019-03-24T09:10:29.995Z,13.47
2019-03-24T09:12:58.146Z,18.67
2019-03-24T09:15:26.117Z,18.30
2019-03-24T09:17:54.122Z,17.00
2019-03-24T09:20:22.064Z,20.63
2019-03-24T09:22:50.080Z,18.83
2019-03-24T09:25:18.086Z,18.30
2019-03-24T09:27:46.200Z,18.77
2019-03-24T09:30:31.095Z,18.53
2019-03-24T09:32:59.165Z,17.33
2019-03-24T09:35:27.129Z,16.43
2019-03-24T09:37:55.451Z,17.17
2019-03-24T09:40:28.133Z,15.90
2019-03-24T09:42:57.055Z,15.57
2019-03-24T09:45:25.085Z,14.37
2019-03-24T09:47:53.139Z,16.03
2019-03-24T09:50:21.060Z,16.37
2019-03-24T09:52:49.105Z,20.77
2019-03-24T09:55:17.066Z,17.63
2019-03-24T09:57:45.190Z,19.43
2019-03-24T10:00:13.331Z,16.20
2019-03-24T10:02:41.365Z,15.47
2019-03-24T10:05:09.645Z,14.40
2019-03-24T10:07:37.619Z,14.20
2019-03-24T10:10:05.774Z,11.30
2019-03-24T10:12:33.705Z,12.90
2019-03-24T10:15:01.839Z,15.13
2019-03-24T10:17:29.831Z,12.90
2019-03-24T10:19:57.835Z,13.87
2019-03-24T10:22:25.975Z,14.00
2019-03-24T10:24:54.039Z,13.27
2019-03-24T10:27:21.986Z,11.97
2019-03-24T10:29:49.986Z,9.77
2019-03-24T10:32:17.914Z,14.00
2019-03-24T10:34:45.944Z,13.30
2019-03-24T10:37:13.919Z,13.70
2019-03-24T10:39:41.935Z,12.70
2019-03-24T10:42:09.888Z,10.70
2019-03-24T10:44:37.876Z,11.03
2019-03-24T10:47:07.695Z,8.60
2019-03-24T10:49:35.735Z,9.93
2019-03-24T10:52:03.760Z,8.43
2019-03-24T10:54:31.805Z,8.43
2019-03-24T10:56:59.785Z,10.83
2019-03-24T10:59:27.875Z,11.63
2019-03-24T11:01:55.804Z,11.77
2019-03-24T11:04:23.829Z,16.90
2019-03-24T11:06:51.850Z,7.07
2019-03-24T11:09:19.904Z,11.20
2019-03-24T11:11:47.890Z,12.37
2019-03-24T11:14:16.339Z,8.30
2019-03-24T11:16:44.445Z,8.83
2019-03-24T11:19:12.616Z,9.43
2019-03-24T11:21:40.690Z,12.70
2019-03-24T11:24:08.960Z,7.53
2019-03-24T11:26:36.942Z,11.17
2019-03-24T11:29:05.059Z,8.90
2019-03-24T11:31:33.035Z,9.33
2019-03-24T11:34:01.140Z,7.10
2019-03-24T11:36:29.115Z,7.17
2019-03-24T11:38:59.082Z,7.70
2019-03-24T11:41:26.970Z,6.57
2019-03-24T11:43:55.031Z,6.57
2019-03-24T11:46:23.165Z,11.87
2019-03-24T11:48:51.206Z,10.63
2019-03-24T11:51:19.289Z,8.03
2019-03-24T11:53:47.812Z,11.00
2019-03-24T11:56:16.639Z,7.27
2019-03-24T11:58:44.834Z,4.53
2019-03-24T12:01:12.865Z,10.07
2019-03-24T12:03:40.877Z,7.80
2019-03-24T12:06:14.526Z,6.13
2019-03-24T12:08:39.221Z,5.93
2019-03-24T12:11:07.402Z,6.27
2019-03-24T12:13:35.664Z,6.00
2019-03-24T12:16:03.719Z,7.63
2019-03-24T12:18:31.703Z,10.17
2019-03-24T12:20:59.736Z,5.10
2019-03-24T12:23:27.712Z,8.30
2019-03-24T12:25:55.878Z,6.23
2019-03-24T12:28:24.027Z,4.90
2019-03-24T12:30:52.083Z,7.50
2019-03-24T12:33:20.073Z,5.73
2019-03-24T12:35:48.137Z,8.23
2019-03-24T12:38:16.162Z,4.47
2019-03-24T12:40:44.378Z,5.40
2019-03-24T12:43:19.369Z,3.87
2019-03-24T12:45:42.683Z,4.57
2019-03-24T12:48:10.793Z,6.30
2019-03-24T12:50:38.967Z,6.73
2019-03-24T12:53:07.102Z,3.80
2019-03-24T12:55:35.460Z,5.50
2019-03-24T12:58:03.733Z,4.57
2019-03-24T13:00:33.982Z,6.27
2019-03-24T13:03:02.242Z,5.00
2019-03-24T13:05:30.393Z,5.37
2019-03-24T13:08:01.310Z,5.10
2019-03-24T13:10:29.548Z,5.67
2019-03-24T13:12:57.782Z,3.87
2019-03-24T13:15:25.901Z,6.50
2019-03-24T13:17:54.128Z,9.80
2019-03-24T13:20:36.431Z,8.03
2019-03-24T13:22:52.602Z,5.87
2019-03-24T13:25:24.602Z,7.53
2019-03-24T13:27:52.713Z,5.57
2019-03-24T13:30:20.982Z,7.97
2019-03-24T13:32:49.334Z,7.03
2019-03-24T13:35:17.507Z,12.33
2019-03-24T13:37:45.612Z,7.40
2019-03-24T13:40:14.084Z,16.97
2019-03-24T13:42:42.327Z,8.00
2019-03-24T13:45:10.367Z,8.53
2019-03-24T13:47:38.587Z,8.07
2019-03-24T13:50:07.358Z,9.20
2019-03-24T13:52:35.757Z,8.30
2019-03-24T13:55:07.706Z,7.53
2019-03-24T13:57:35.964Z,10.20
2019-03-24T14:00:05.192Z,10.97
2019-03-24T14:02:33.460Z,10.60
2019-03-24T14:05:01.756Z,9.17
2019-03-24T14:07:30.262Z,8.33
2019-03-24T14:09:58.634Z,7.00
2019-03-24T14:12:27.187Z,9.40
2019-03-24T14:14:55.493Z,7.73
2019-03-24T14:17:23.838Z,5.37
2019-03-24T14:19:51.983Z,7.43
2019-03-24T14:22:20.363Z,4.70
2019-03-24T14:24:48.498Z,7.17
2019-03-24T14:27:16.944Z,6.63
2019-03-24T14:29:45.183Z,4.50
2019-03-24T14:32:14.282Z,4.70
2019-03-24T14:34:42.458Z,5.30
2019-03-24T14:37:11.789Z,4.60
2019-03-24T14:39:40.412Z,3.33
2019-03-24T14:42:08.907Z,3.17
2019-03-24T14:44:37.253Z,2.23
2019-03-24T14:47:05.933Z,2.40
2019-03-24T14:49:34.295Z,3.10
2019-03-24T14:52:02.865Z,1.87
2019-03-24T14:54:31.297Z,2.33
2019-03-24T14:56:59.812Z,3.27
2019-03-24T14:59:28.303Z,4.93
2019-03-24T15:01:56.707Z,2.40
2019-03-24T15:04:25.161Z,3.53
2019-03-24T15:06:53.782Z,3.50
2019-03-24T15:09:22.778Z,6.73
2019-03-24T15:11:51.072Z,6.23
2019-03-24T15:14:19.463Z,5.50
2019-03-24T15:16:47.821Z,3.30
2019-03-24T15:19:16.251Z,5.33
2019-03-24T15:21:44.762Z,3.43
2019-03-24T15:24:13.187Z,3.90
2019-03-24T15:26:41.780Z,8.73
2019-03-24T15:29:10.253Z,7.20
2019-03-24T15:31:38.687Z,6.03
2019-03-24T15:34:07.142Z,4.07
2019-03-24T15:36:35.587Z,4.63
2019-03-24T15:39:07.035Z,5.87
2019-03-24T15:41:35.502Z,6.27
2019-03-24T15:44:03.992Z,6.93
2019-03-24T15:46:32.392Z,4.43
2019-03-24T15:49:00.917Z,8.67
2019-03-24T15:51:29.490Z,2.33
2019-03-24T15:53:58.055Z,3.00
2019-03-24T15:56:26.436Z,5.13
2019-03-24T15:58:55.004Z,3.50
2019-03-24T16:01:23.506Z,4.23
2019-03-24T16:03:52.001Z,6.03
2019-03-24T16:06:20.515Z,3.70
2019-03-24T16:08:49.054Z,3.40
2019-03-24T16:11:17.691Z,7.17
2019-03-24T16:13:46.216Z,8.03
2019-03-24T16:16:14.655Z,5.97
2019-03-24T16:18:43.242Z,5.63
2019-03-24T16:21:11.692Z,8.43
2019-03-24T16:23:40.611Z,2.97
2019-03-24T16:26:09.112Z,8.97
2019-03-24T16:28:37.656Z,5.17
2019-03-24T16:31:05.956Z,4.17
2019-03-24T16:33:34.527Z,3.83
2019-03-24T16:36:03.088Z,7.67
2019-03-24T16:38:31.617Z,9.10
2019-03-24T16:41:02.726Z,6.73
2019-03-24T16:43:31.397Z,8.40
2019-03-24T16:46:00.203Z,7.27
2019-03-24T16:48:36.830Z,8.40
2019-03-24T16:50:59.142Z,6.27
2019-03-24T16:53:27.726Z,9.70
2019-03-24T16:55:56.346Z,6.17
2019-03-24T16:58:24.891Z,7.80
2019-03-24T17:00:53.562Z,7.10
2019-03-24T17:03:23.432Z,5.93
2019-03-24T17:05:52.130Z,5.80
2019-03-24T17:08:20.640Z,11.17
2019-03-24T17:10:49.127Z,7.93
2019-03-24T17:13:17.846Z,8.77
2019-03-24T17:15:46.365Z,5.43
2019-03-24T17:18:14.911Z,5.83
2019-03-24T17:20:43.416Z,9.33
2019-03-24T17:23:11.842Z,7.60
2019-03-24T17:25:40.427Z,10.53
2019-03-24T17:28:08.907Z,10.10
2019-03-24T17:30:37.406Z,7.40
2019-03-24T17:33:05.895Z,9.53
2019-03-24T17:35:34.381Z,9.23
2019-03-24T17:38:02.976Z,5.80
2019-03-24T17:40:31.529Z,5.43
2019-03-24T17:43:00.038Z,8.23
2019-03-24T17:45:28.686Z,9.70
2019-03-24T17:47:57.196Z,8.77
2019-03-24T17:50:25.848Z,5.57
2019-03-24T17:52:55.012Z,7.30
2019-03-24T17:55:27.834Z,6.90
2019-03-24T17:57:54.317Z,7.93
2019-03-24T18:00:42.072Z,7.57
2019-03-24T18:03:10.744Z,6.90
2019-03-24T18:05:40.688Z,4.80
2019-03-24T18:08:09.273Z,10.77
2019-03-24T18:10:37.967Z,7.97
2019-03-24T18:13:06.466Z,7.63
2019-03-24T18:15:35.042Z,7.57
2019-03-24T18:18:03.432Z,8.20
2019-03-24T18:20:32.693Z,8.07
2019-03-24T18:23:01.266Z,7.50
2019-03-24T18:25:30.036Z,8.47
2019-03-24T18:27:58.567Z,7.27
2019-03-24T18:30:27.152Z,6.90
2019-03-24T18:32:55.717Z,8.30
2019-03-24T18:35:24.262Z,13.37
2019-03-24T18:37:52.757Z,6.60
2019-03-24T18:40:21.307Z,7.97
2019-03-24T18:42:49.852Z,5.83
2019-03-24T18:45:18.548Z,11.57
2019-03-24T18:47:47.142Z,8.30
2019-03-24T18:50:16.047Z,8.13
2019-03-24T18:52:44.607Z,10.63
2019-03-24T18:55:13.433Z,10.27
2019-03-24T18:57:41.976Z,9.63
2019-03-24T19:00:11.408Z,9.40
2019-03-24T19:02:40.071Z,11.27
2019-03-24T19:05:08.882Z,9.50
2019-03-24T19:07:37.433Z,11.00
2019-03-24T19:10:07.346Z,11.53
2019-03-24T19:12:37.123Z,9.47
2019-03-24T19:15:08.556Z,7.10
2019-03-24T19:17:38.080Z,10.03
2019-03-24T19:20:07.363Z,9.77
2019-03-24T19:22:36.157Z,12.97
2019-03-24T19:25:04.936Z,10.63
2019-03-24T19:27:33.632Z,11.67
2019-03-24T19:30:02.339Z,10.80
2019-03-24T19:32:30.857Z,12.97
2019-03-24T19:34:59.461Z,8.67
2019-03-24T19:37:28.131Z,10.30
2019-03-24T19:39:56.802Z,12.80
2019-03-24T19:42:25.551Z,7.00
2019-03-24T19:44:54.366Z,6.70
2019-03-24T19:47:25.016Z,12.70
2019-03-24T19:49:53.771Z,9.17
2019-03-24T19:52:22.392Z,12.33
2019-03-24T19:54:51.987Z,9.07
2019-03-24T19:57:20.621Z,14.40
2019-03-24T19:59:49.197Z,12.07
2019-03-24T20:02:17.962Z,11.97
2019-03-24T20:07:17.651Z,6.70
2019-03-24T20:09:46.152Z,4.97
2019-03-24T20:12:18.535Z,13.67
2019-03-24T20:14:47.046Z,9.57
2019-03-24T20:17:15.626Z,11.43
2019-03-24T20:19:44.228Z,10.97
2019-03-24T20:22:12.797Z,4.70
2019-03-24T20:24:41.361Z,8.13
2019-03-24T20:27:10.002Z,9.50
2019-03-24T20:29:38.727Z,7.43
2019-03-24T20:32:07.341Z,7.00
2019-03-24T20:34:36.451Z,7.73
2019-03-24T20:37:05.187Z,4.93
2019-03-24T20:39:33.778Z,9.90
2019-03-24T20:42:02.441Z,5.97
2019-03-24T20:44:30.940Z,10.23
2019-03-24T20:46:59.561Z,9.13
2019-03-24T20:49:28.150Z,12.40
2019-03-24T20:51:56.747Z,11.57
2019-03-24T20:54:25.276Z,7.33
2019-03-24T20:56:53.845Z,10.10
2019-03-24T20:59:22.430Z,13.07
2019-03-24T21:01:51.040Z,5.53
2019-03-24T21:04:20.363Z,11.27
2019-03-24T21:06:48.949Z,8.57
2019-03-24T21:09:17.554Z,11.60
2019-03-24T21:11:46.180Z,5.23
2019-03-24T21:14:14.730Z,6.57
2019-03-24T21:16:43.262Z,11.83
2019-03-24T21:19:11.751Z,11.40
2019-03-24T21:21:40.430Z,6.93
2019-03-24T21:24:08.916Z,10.97
2019-03-24T21:26:37.450Z,5.73
2019-03-24T21:29:05.940Z,11.80
2019-03-24T21:31:34.506Z,7.77
2019-03-24T21:34:03.102Z,8.80
2019-03-24T21:36:31.526Z,7.20
2019-03-24T21:39:00.025Z,12.00
2019-03-24T21:41:29.315Z,8.27
2019-03-24T21:43:57.883Z,7.50
2019-03-24T21:46:26.325Z,6.37
2019-03-24T21:48:54.708Z,5.83
2019-03-24T21:51:23.110Z,7.83
2019-03-24T21:53:51.510Z,8.20
2019-03-24T21:56:19.801Z,7.30
2019-03-24T21:58:48.340Z,7.40
2019-03-24T22:01:16.861Z,8.13
2019-03-24T22:03:45.340Z,10.33
2019-03-24T22:06:13.495Z,6.73
2019-03-24T22:08:42.123Z,8.07
2019-03-24T22:11:10.279Z,8.33
2019-03-24T22:13:38.540Z,6.03
2019-03-24T22:16:06.660Z,8.80
2019-03-24T22:18:34.800Z,8.40
2019-03-24T22:21:02.903Z,8.77
2019-03-24T22:23:31.023Z,9.53
2019-03-24T22:25:58.951Z,9.90
2019-03-24T22:28:26.937Z,8.60
2019-03-24T22:30:54.975Z,9.10
2019-03-24T22:33:23.112Z,12.23
2019-03-24T22:35:51.301Z,4.27
2019-03-24T22:38:19.403Z,11.93
2019-03-24T22:40:47.383Z,10.93
2019-03-24T22:43:15.446Z,6.63
2019-03-24T22:45:43.599Z,11.03
2019-03-24T22:48:11.583Z,10.63
2019-03-24T22:50:44.703Z,7.23
2019-03-24T22:53:12.874Z,13.53
2019-03-24T22:55:41.093Z,8.30
2019-03-24T22:58:09.418Z,6.47
2019-03-24T23:00:47.636Z,6.20
2019-03-24T23:03:15.825Z,11.83
2019-03-24T23:05:44.083Z,9.37
2019-03-24T23:08:12.349Z,11.77
2019-03-24T23:10:40.594Z,13.30
2019-03-24T23:13:09.666Z,7.63
2019-03-24T23:15:37.887Z,7.63
2019-03-24T23:18:06.221Z,6.13
2019-03-24T23:20:34.247Z,9.17
2019-03-24T23:23:02.304Z,11.43
2019-03-24T23:25:30.387Z,7.63
2019-03-24T23:27:58.592Z,6.03
2019-03-24T23:30:26.573Z,11.47
2019-03-24T23:32:54.629Z,7.90
2019-03-24T23:35:22.657Z,8.67
2019-03-24T23:37:50.733Z,6.27
2019-03-24T23:40:21.136Z,7.37
2019-03-24T23:42:51.482Z,7.37
2019-03-24T23:45:19.737Z,8.23
2019-03-24T23:47:47.941Z,7.83
2019-03-24T23:50:16.329Z,5.20
2019-03-24T23:52:44.361Z,11.37
2019-03-24T23:55:12.545Z,9.10
2019-03-24T23:57:44.335Z,9.10
